sensor_id;sensor_type;location;lat;lon;timestamp;P1;durP1;ratioP1;P2;durP2;ratioP2
71639;SDS011;60912;48.968;10.124;2023-10-31T00:01:31;2.17;;;1.07;;
71639;SDS011;60912;48.968;10.124;2023-10-31T00:03:56;4.40;;;1.20;;
71639;SDS011;60912;48.968;10.124;2023-10-31T00:06:22;3.73;;;1.00;;
71639;SDS011;60912;48.968;10.124;2023-10-31T00:08:47;2.67;;;1.20;;
71639;SDS011;60912;48.968;10.124;2023-10-31T00:11:12;2.13;;;0.90;;
71639;SDS011;60912;48.968;10.124;2023-10-31T00:13:38;3.30;;;1.10;;
71639;SDS011;60912;48.968;10.124;2023-10-31T00:16:03;2.83;;;0.83;;
71639;SDS011;60912;48.968;10.124;2023-10-31T00:18:28;2.03;;;0.90;;
71639;SDS011;60912;48.968;10.124;2023-10-31T00:20:54;1.60;;;0.70;;
71639;SDS011;60912;48.968;10.124;2023-10-31T00:23:21;1.47;;;0.77;;
71639;SDS011;60912;48.968;10.124;2023-10-31T00:25:47;2.47;;;0.60;;
71639;SDS011;60912;48.968;10.124;2023-10-31T00:28:13;1.90;;;0.80;;
71639;SDS011;60912;48.968;10.124;2023-10-31T00:30:38;1.73;;;0.60;;
71639;SDS011;60912;48.968;10.124;2023-10-31T00:33:03;1.00;;;0.60;;
71639;SDS011;60912;48.968;10.124;2023-10-31T00:35:29;1.40;;;0.60;;
71639;SDS011;60912;48.968;10.124;2023-10-31T00:37:55;1.90;;;0.60;;
71639;SDS011;60912;48.968;10.124;2023-10-31T00:40:21;1.63;;;0.60;;
71639;SDS011;60912;48.968;10.124;2023-10-31T00:42:46;1.50;;;0.60;;
71639;SDS011;60912;48.968;10.124;2023-10-31T00:45:11;2.33;;;0.50;;
71639;SDS011;60912;48.968;10.124;2023-10-31T00:47:37;1.10;;;0.50;;
71639;SDS011;60912;48.968;10.124;2023-10-31T00:50:02;1.57;;;0.50;;
71639;SDS011;60912;48.968;10.124;2023-10-31T00:52:27;1.00;;;0.40;;
71639;SDS011;60912;48.968;10.124;2023-10-31T00:54:53;3.27;;;0.60;;
71639;SDS011;60912;48.968;10.124;2023-10-31T00:57:18;1.87;;;0.47;;
71639;SDS011;60912;48.968;10.124;2023-10-31T00:59:43;4.33;;;0.50;;
71639;SDS011;60912;48.968;10.124;2023-10-31T01:02:09;1.80;;;0.60;;
71639;SDS011;60912;48.968;10.124;2023-10-31T01:04:35;1.77;;;0.50;;
71639;SDS011;60912;48.968;10.124;2023-10-31T01:07:01;1.10;;;0.60;;
71639;SDS011;60912;48.968;10.124;2023-10-31T01:09:26;1.40;;;0.50;;
71639;SDS011;60912;48.968;10.124;2023-10-31T01:11:51;1.35;;;0.40;;
71639;SDS011;60912;48.968;10.124;2023-10-31T01:14:17;1.47;;;0.40;;
71639;SDS011;60912;48.968;10.124;2023-10-31T01:16:42;0.67;;;0.40;;
71639;SDS011;60912;48.968;10.124;2023-10-31T01:19:07;1.43;;;0.50;;
71639;SDS011;60912;48.968;10.124;2023-10-31T01:21:33;1.67;;;0.40;;
71639;SDS011;60912;48.968;10.124;2023-10-31T01:23:59;3.57;;;0.50;;
71639;SDS011;60912;48.968;10.124;2023-10-31T01:26:24;2.22;;;0.50;;
71639;SDS011;60912;48.968;10.124;2023-10-31T01:28:50;1.87;;;0.53;;
71639;SDS011;60912;48.968;10.124;2023-10-31T01:31:15;1.23;;;0.50;;
71639;SDS011;60912;48.968;10.124;2023-10-31T01:33:41;1.50;;;0.38;;
71639;SDS011;60912;48.968;10.124;2023-10-31T01:36:06;2.47;;;0.53;;
71639;SDS011;60912;48.968;10.124;2023-10-31T01:38:32;2.15;;;0.73;;
71639;SDS011;60912;48.968;10.124;2023-10-31T01:40:57;1.10;;;0.40;;
71639;SDS011;60912;48.968;10.124;2023-10-31T01:43:32;0.60;;;0.40;;
71639;SDS011;60912;48.968;10.124;2023-10-31T01:46:00;1.63;;;0.40;;
71639;SDS011;60912;48.968;10.124;2023-10-31T01:48:27;1.27;;;0.40;;
71639;SDS011;60912;48.968;10.124;2023-10-31T01:50:54;3.00;;;0.50;;
71639;SDS011;60912;48.968;10.124;2023-10-31T01:53:20;4.00;;;0.43;;
71639;SDS011;60912;48.968;10.124;2023-10-31T01:55:47;1.70;;;0.43;;
71639;SDS011;60912;48.968;10.124;2023-10-31T01:58:13;1.63;;;0.40;;
71639;SDS011;60912;48.968;10.124;2023-10-31T02:00:39;1.00;;;0.40;;
71639;SDS011;60912;48.968;10.124;2023-10-31T02:03:08;1.90;;;0.43;;
71639;SDS011;60912;48.968;10.124;2023-10-31T02:05:34;0.88;;;0.40;;
71639;SDS011;60912;48.968;10.124;2023-10-31T02:08:00;2.40;;;0.60;;
71639;SDS011;60912;48.968;10.124;2023-10-31T02:10:26;0.87;;;0.40;;
71639;SDS011;60912;48.968;10.124;2023-10-31T02:12:51;0.98;;;0.50;;
71639;SDS011;60912;48.968;10.124;2023-10-31T02:15:16;1.37;;;0.50;;
71639;SDS011;60912;48.968;10.124;2023-10-31T02:17:42;1.83;;;0.50;;
71639;SDS011;60912;48.968;10.124;2023-10-31T02:20:07;1.20;;;0.50;;
71639;SDS011;60912;48.968;10.124;2023-10-31T02:22:33;0.90;;;0.50;;
71639;SDS011;60912;48.968;10.124;2023-10-31T02:24:58;2.13;;;0.60;;
71639;SDS011;60912;48.968;10.124;2023-10-31T02:27:23;2.23;;;0.60;;
71639;SDS011;60912;48.968;10.124;2023-10-31T02:29:49;3.40;;;0.50;;
71639;SDS011;60912;48.968;10.124;2023-10-31T02:32:14;3.73;;;0.50;;
71639;SDS011;60912;48.968;10.124;2023-10-31T02:34:39;1.37;;;0.40;;
71639;SDS011;60912;48.968;10.124;2023-10-31T02:37:05;1.33;;;0.50;;
71639;SDS011;60912;48.968;10.124;2023-10-31T02:39:30;2.13;;;0.53;;
71639;SDS011;60912;48.968;10.124;2023-10-31T02:41:56;3.50;;;0.50;;
71639;SDS011;60912;48.968;10.124;2023-10-31T02:44:22;0.90;;;0.40;;
71639;SDS011;60912;48.968;10.124;2023-10-31T02:46:48;2.40;;;0.40;;
71639;SDS011;60912;48.968;10.124;2023-10-31T02:49:13;0.77;;;0.40;;
71639;SDS011;60912;48.968;10.124;2023-10-31T02:51:39;2.20;;;0.40;;
71639;SDS011;60912;48.968;10.124;2023-10-31T02:54:04;3.72;;;0.50;;
71639;SDS011;60912;48.968;10.124;2023-10-31T02:56:30;1.53;;;0.50;;
71639;SDS011;60912;48.968;10.124;2023-10-31T02:58:57;2.17;;;0.40;;
71639;SDS011;60912;48.968;10.124;2023-10-31T03:01:22;2.13;;;0.47;;
71639;SDS011;60912;48.968;10.124;2023-10-31T03:03:48;3.17;;;0.60;;
71639;SDS011;60912;48.968;10.124;2023-10-31T03:06:13;3.60;;;0.50;;
71639;SDS011;60912;48.968;10.124;2023-10-31T03:08:38;1.97;;;0.83;;
71639;SDS011;60912;48.968;10.124;2023-10-31T03:11:04;4.80;;;0.57;;
71639;SDS011;60912;48.968;10.124;2023-10-31T03:13:29;2.23;;;0.50;;
71639;SDS011;60912;48.968;10.124;2023-10-31T03:15:54;1.33;;;0.50;;
71639;SDS011;60912;48.968;10.124;2023-10-31T03:18:20;1.90;;;0.50;;
71639;SDS011;60912;48.968;10.124;2023-10-31T03:20:45;1.70;;;0.60;;
71639;SDS011;60912;48.968;10.124;2023-10-31T03:23:11;1.47;;;0.43;;
71639;SDS011;60912;48.968;10.124;2023-10-31T03:25:37;1.48;;;0.50;;
71639;SDS011;60912;48.968;10.124;2023-10-31T03:28:03;2.77;;;0.60;;
71639;SDS011;60912;48.968;10.124;2023-10-31T03:30:28;1.63;;;0.50;;
71639;SDS011;60912;48.968;10.124;2023-10-31T03:32:55;3.15;;;0.50;;
71639;SDS011;60912;48.968;10.124;2023-10-31T03:35:20;2.33;;;0.50;;
71639;SDS011;60912;48.968;10.124;2023-10-31T03:37:46;2.13;;;0.50;;
71639;SDS011;60912;48.968;10.124;2023-10-31T03:40:11;1.40;;;0.43;;
71639;SDS011;60912;48.968;10.124;2023-10-31T03:42:37;2.47;;;0.63;;
71639;SDS011;60912;48.968;10.124;2023-10-31T03:45:02;1.87;;;0.50;;
71639;SDS011;60912;48.968;10.124;2023-10-31T03:47:27;1.37;;;0.47;;
71639;SDS011;60912;48.968;10.124;2023-10-31T03:49:53;1.87;;;0.40;;
71639;SDS011;60912;48.968;10.124;2023-10-31T03:52:18;3.33;;;0.50;;
71639;SDS011;60912;48.968;10.124;2023-10-31T03:54:44;1.40;;;0.50;;
71639;SDS011;60912;48.968;10.124;2023-10-31T03:57:10;1.90;;;0.68;;
71639;SDS011;60912;48.968;10.124;2023-10-31T03:59:36;2.03;;;0.60;;
71639;SDS011;60912;48.968;10.124;2023-10-31T04:02:02;3.70;;;0.50;;
71639;SDS011;60912;48.968;10.124;2023-10-31T04:04:28;1.23;;;0.50;;
71639;SDS011;60912;48.968;10.124;2023-10-31T04:06:53;2.57;;;0.50;;
71639;SDS011;60912;48.968;10.124;2023-10-31T04:09:19;1.35;;;0.50;;
71639;SDS011;60912;48.968;10.124;2023-10-31T04:11:44;1.80;;;0.50;;
71639;SDS011;60912;48.968;10.124;2023-10-31T04:14:10;1.67;;;0.43;;
71639;SDS011;60912;48.968;10.124;2023-10-31T04:16:41;3.70;;;0.60;;
71639;SDS011;60912;48.968;10.124;2023-10-31T04:19:11;2.07;;;0.50;;
71639;SDS011;60912;48.968;10.124;2023-10-31T04:21:37;2.72;;;0.60;;
71639;SDS011;60912;48.968;10.124;2023-10-31T04:24:03;3.50;;;0.50;;
71639;SDS011;60912;48.968;10.124;2023-10-31T04:26:28;2.78;;;0.60;;
71639;SDS011;60912;48.968;10.124;2023-10-31T04:28:54;2.17;;;0.50;;
71639;SDS011;60912;48.968;10.124;2023-10-31T04:31:19;2.27;;;0.63;;
71639;SDS011;60912;48.968;10.124;2023-10-31T04:33:44;2.40;;;0.70;;
71639;SDS011;60912;48.968;10.124;2023-10-31T04:36:10;1.00;;;0.40;;
71639;SDS011;60912;48.968;10.124;2023-10-31T04:38:36;2.45;;;0.50;;
71639;SDS011;60912;48.968;10.124;2023-10-31T04:41:02;1.87;;;0.60;;
71639;SDS011;60912;48.968;10.124;2023-10-31T04:43:28;2.25;;;0.50;;
71639;SDS011;60912;48.968;10.124;2023-10-31T04:45:53;1.70;;;0.60;;
71639;SDS011;60912;48.968;10.124;2023-10-31T04:48:18;1.40;;;0.50;;
71639;SDS011;60912;48.968;10.124;2023-10-31T04:50:43;1.90;;;0.40;;
71639;SDS011;60912;48.968;10.124;2023-10-31T04:53:09;1.67;;;0.40;;
71639;SDS011;60912;48.968;10.124;2023-10-31T04:55:34;3.53;;;0.50;;
71639;SDS011;60912;48.968;10.124;2023-10-31T04:57:59;2.85;;;0.60;;
71639;SDS011;60912;48.968;10.124;2023-10-31T05:00:25;1.83;;;0.60;;
71639;SDS011;60912;48.968;10.124;2023-10-31T05:02:50;2.53;;;0.60;;
71639;SDS011;60912;48.968;10.124;2023-10-31T05:05:15;2.23;;;0.60;;
71639;SDS011;60912;48.968;10.124;2023-10-31T05:07:41;3.17;;;0.53;;
71639;SDS011;60912;48.968;10.124;2023-10-31T05:10:06;1.47;;;0.50;;
71639;SDS011;60912;48.968;10.124;2023-10-31T05:12:32;2.03;;;0.50;;
71639;SDS011;60912;48.968;10.124;2023-10-31T05:14:57;8.43;;;0.70;;
71639;SDS011;60912;48.968;10.124;2023-10-31T05:17:23;2.13;;;0.50;;
71639;SDS011;60912;48.968;10.124;2023-10-31T05:19:48;1.10;;;0.50;;
71639;SDS011;60912;48.968;10.124;2023-10-31T05:22:14;1.75;;;0.50;;
71639;SDS011;60912;48.968;10.124;2023-10-31T05:24:39;1.80;;;0.40;;
71639;SDS011;60912;48.968;10.124;2023-10-31T05:27:04;2.87;;;0.70;;
71639;SDS011;60912;48.968;10.124;2023-10-31T05:29:32;2.95;;;0.60;;
71639;SDS011;60912;48.968;10.124;2023-10-31T05:31:57;1.13;;;0.50;;
71639;SDS011;60912;48.968;10.124;2023-10-31T05:34:23;2.93;;;0.70;;
71639;SDS011;60912;48.968;10.124;2023-10-31T05:36:48;1.70;;;0.70;;
71639;SDS011;60912;48.968;10.124;2023-10-31T05:39:13;1.35;;;0.50;;
71639;SDS011;60912;48.968;10.124;2023-10-31T05:41:40;2.40;;;0.60;;
71639;SDS011;60912;48.968;10.124;2023-10-31T05:44:06;2.38;;;0.50;;
71639;SDS011;60912;48.968;10.124;2023-10-31T05:46:31;1.43;;;0.50;;
71639;SDS011;60912;48.968;10.124;2023-10-31T05:49:03;1.60;;;0.50;;
71639;SDS011;60912;48.968;10.124;2023-10-31T05:51:28;2.53;;;0.73;;
71639;SDS011;60912;48.968;10.124;2023-10-31T05:53:54;2.45;;;0.50;;
71639;SDS011;60912;48.968;10.124;2023-10-31T05:56:20;2.30;;;0.70;;
71639;SDS011;60912;48.968;10.124;2023-10-31T05:58:45;1.80;;;0.90;;
71639;SDS011;60912;48.968;10.124;2023-10-31T06:01:10;2.40;;;0.63;;
71639;SDS011;60912;48.968;10.124;2023-10-31T06:03:36;2.13;;;0.50;;
71639;SDS011;60912;48.968;10.124;2023-10-31T06:06:02;1.40;;;0.50;;
71639;SDS011;60912;48.968;10.124;2023-10-31T06:08:27;1.13;;;0.50;;
71639;SDS011;60912;48.968;10.124;2023-10-31T06:10:54;1.30;;;0.60;;
71639;SDS011;60912;48.968;10.124;2023-10-31T06:13:20;2.13;;;0.52;;
71639;SDS011;60912;48.968;10.124;2023-10-31T06:15:45;1.87;;;0.67;;
71639;SDS011;60912;48.968;10.124;2023-10-31T06:18:11;1.43;;;0.70;;
71639;SDS011;60912;48.968;10.124;2023-10-31T06:20:38;1.25;;;0.50;;
71639;SDS011;60912;48.968;10.124;2023-10-31T06:23:04;2.38;;;0.70;;
71639;SDS011;60912;48.968;10.124;2023-10-31T06:25:30;2.70;;;0.60;;
71639;SDS011;60912;48.968;10.124;2023-10-31T06:27:55;1.97;;;0.63;;
71639;SDS011;60912;48.968;10.124;2023-10-31T06:30:23;4.55;;;0.80;;
71639;SDS011;60912;48.968;10.124;2023-10-31T06:32:53;2.08;;;0.60;;
71639;SDS011;60912;48.968;10.124;2023-10-31T06:35:21;1.83;;;0.60;;
71639;SDS011;60912;48.968;10.124;2023-10-31T06:37:53;1.98;;;0.60;;
71639;SDS011;60912;48.968;10.124;2023-10-31T06:40:20;4.00;;;0.63;;
71639;SDS011;60912;48.968;10.124;2023-10-31T06:42:45;5.27;;;0.60;;
71639;SDS011;60912;48.968;10.124;2023-10-31T06:45:14;1.75;;;0.70;;
71639;SDS011;60912;48.968;10.124;2023-10-31T06:47:39;3.43;;;0.70;;
71639;SDS011;60912;48.968;10.124;2023-10-31T06:50:07;1.80;;;0.80;;
71639;SDS011;60912;48.968;10.124;2023-10-31T06:52:36;1.98;;;0.70;;
71639;SDS011;60912;48.968;10.124;2023-10-31T06:55:01;1.53;;;0.60;;
71639;SDS011;60912;48.968;10.124;2023-10-31T06:57:27;1.92;;;0.70;;
71639;SDS011;60912;48.968;10.124;2023-10-31T06:59:53;2.73;;;0.60;;
71639;SDS011;60912;48.968;10.124;2023-10-31T07:02:18;3.50;;;0.70;;
71639;SDS011;60912;48.968;10.124;2023-10-31T07:04:43;1.37;;;0.50;;
71639;SDS011;60912;48.968;10.124;2023-10-31T07:07:09;3.37;;;0.60;;
71639;SDS011;60912;48.968;10.124;2023-10-31T07:09:34;4.70;;;0.90;;
71639;SDS011;60912;48.968;10.124;2023-10-31T07:11:59;1.70;;;0.60;;
71639;SDS011;60912;48.968;10.124;2023-10-31T07:14:25;1.50;;;0.50;;
71639;SDS011;60912;48.968;10.124;2023-10-31T07:16:50;4.70;;;0.70;;
71639;SDS011;60912;48.968;10.124;2023-10-31T07:19:16;2.23;;;0.80;;
71639;SDS011;60912;48.968;10.124;2023-10-31T07:21:41;3.27;;;1.30;;
71639;SDS011;60912;48.968;10.124;2023-10-31T07:24:06;2.23;;;0.80;;
71639;SDS011;60912;48.968;10.124;2023-10-31T07:26:34;3.08;;;0.90;;
71639;SDS011;60912;48.968;10.124;2023-10-31T07:29:00;1.75;;;0.65;;
71639;SDS011;60912;48.968;10.124;2023-10-31T07:31:25;2.23;;;0.63;;
71639;SDS011;60912;48.968;10.124;2023-10-31T07:33:51;2.80;;;0.80;;
71639;SDS011;60912;48.968;10.124;2023-10-31T07:36:16;1.77;;;0.73;;
71639;SDS011;60912;48.968;10.124;2023-10-31T07:38:41;1.33;;;0.70;;
71639;SDS011;60912;48.968;10.124;2023-10-31T07:41:07;1.77;;;0.60;;
71639;SDS011;60912;48.968;10.124;2023-10-31T07:43:32;4.10;;;0.70;;
71639;SDS011;60912;48.968;10.124;2023-10-31T07:45:58;1.92;;;0.63;;
71639;SDS011;60912;48.968;10.124;2023-10-31T07:48:26;2.90;;;0.70;;
71639;SDS011;60912;48.968;10.124;2023-10-31T07:50:51;1.13;;;0.40;;
71639;SDS011;60912;48.968;10.124;2023-10-31T07:53:17;3.35;;;0.70;;
71639;SDS011;60912;48.968;10.124;2023-10-31T07:55:42;1.00;;;0.50;;
71639;SDS011;60912;48.968;10.124;2023-10-31T07:58:08;2.60;;;0.70;;
71639;SDS011;60912;48.968;10.124;2023-10-31T08:00:34;2.45;;;0.57;;
71639;SDS011;60912;48.968;10.124;2023-10-31T08:03:00;2.10;;;0.70;;
71639;SDS011;60912;48.968;10.124;2023-10-31T08:05:26;2.45;;;0.60;;
71639;SDS011;60912;48.968;10.124;2023-10-31T08:07:52;2.27;;;0.50;;
71639;SDS011;60912;48.968;10.124;2023-10-31T08:10:17;2.40;;;0.70;;
71639;SDS011;60912;48.968;10.124;2023-10-31T08:12:43;2.95;;;0.60;;
71639;SDS011;60912;48.968;10.124;2023-10-31T08:15:08;1.33;;;0.50;;
71639;SDS011;60912;48.968;10.124;2023-10-31T08:17:34;2.83;;;0.70;;
71639;SDS011;60912;48.968;10.124;2023-10-31T08:20:00;1.70;;;0.50;;
71639;SDS011;60912;48.968;10.124;2023-10-31T08:22:28;3.53;;;0.80;;
71639;SDS011;60912;48.968;10.124;2023-10-31T08:24:53;2.53;;;0.70;;
71639;SDS011;60912;48.968;10.124;2023-10-31T08:27:19;2.63;;;0.50;;
71639;SDS011;60912;48.968;10.124;2023-10-31T08:29:48;2.83;;;0.52;;
71639;SDS011;60912;48.968;10.124;2023-10-31T08:32:21;1.73;;;0.57;;
71639;SDS011;60912;48.968;10.124;2023-10-31T08:34:49;1.65;;;0.60;;
71639;SDS011;60912;48.968;10.124;2023-10-31T08:37:15;1.53;;;0.60;;
71639;SDS011;60912;48.968;10.124;2023-10-31T08:39:40;3.37;;;0.70;;
71639;SDS011;60912;48.968;10.124;2023-10-31T08:42:06;1.23;;;0.53;;
71639;SDS011;60912;48.968;10.124;2023-10-31T08:44:32;4.00;;;0.60;;
71639;SDS011;60912;48.968;10.124;2023-10-31T08:46:58;2.33;;;0.40;;
71639;SDS011;60912;48.968;10.124;2023-10-31T08:49:27;1.80;;;0.50;;
71639;SDS011;60912;48.968;10.124;2023-10-31T08:52:09;2.03;;;0.50;;
71639;SDS011;60912;48.968;10.124;2023-10-31T08:54:35;2.75;;;0.50;;
71639;SDS011;60912;48.968;10.124;2023-10-31T08:57:03;3.00;;;0.50;;
71639;SDS011;60912;48.968;10.124;2023-10-31T08:59:29;2.40;;;0.85;;
71639;SDS011;60912;48.968;10.124;2023-10-31T09:02:01;1.70;;;0.50;;
71639;SDS011;60912;48.968;10.124;2023-10-31T09:04:27;4.40;;;0.90;;
71639;SDS011;60912;48.968;10.124;2023-10-31T09:06:52;2.53;;;0.60;;
71639;SDS011;60912;48.968;10.124;2023-10-31T09:09:17;1.83;;;0.80;;
71639;SDS011;60912;48.968;10.124;2023-10-31T09:11:43;0.97;;;0.40;;
71639;SDS011;60912;48.968;10.124;2023-10-31T09:14:09;1.63;;;0.50;;
71639;SDS011;60912;48.968;10.124;2023-10-31T09:16:34;4.00;;;0.70;;
71639;SDS011;60912;48.968;10.124;2023-10-31T09:19:00;2.30;;;0.50;;
71639;SDS011;60912;48.968;10.124;2023-10-31T09:21:25;3.00;;;0.67;;
71639;SDS011;60912;48.968;10.124;2023-10-31T09:23:50;1.87;;;0.50;;
71639;SDS011;60912;48.968;10.124;2023-10-31T09:26:16;2.87;;;0.60;;
71639;SDS011;60912;48.968;10.124;2023-10-31T09:28:42;3.55;;;0.60;;
71639;SDS011;60912;48.968;10.124;2023-10-31T09:31:14;2.40;;;0.68;;
71639;SDS011;60912;48.968;10.124;2023-10-31T09:33:43;2.25;;;0.70;;
71639;SDS011;60912;48.968;10.124;2023-10-31T09:36:12;3.10;;;0.70;;
71639;SDS011;60912;48.968;10.124;2023-10-31T09:38:39;4.65;;;0.80;;
71639;SDS011;60912;48.968;10.124;2023-10-31T09:41:04;3.73;;;0.90;;
71639;SDS011;60912;48.968;10.124;2023-10-31T09:43:30;3.33;;;0.60;;
71639;SDS011;60912;48.968;10.124;2023-10-31T09:45:56;2.22;;;0.68;;
71639;SDS011;60912;48.968;10.124;2023-10-31T09:48:25;2.83;;;0.60;;
71639;SDS011;60912;48.968;10.124;2023-10-31T09:50:51;2.70;;;0.80;;
71639;SDS011;60912;48.968;10.124;2023-10-31T09:53:18;3.00;;;0.80;;
71639;SDS011;60912;48.968;10.124;2023-10-31T09:55:44;3.80;;;0.82;;
71639;SDS011;60912;48.968;10.124;2023-10-31T09:58:11;4.60;;;1.00;;
71639;SDS011;60912;48.968;10.124;2023-10-31T10:00:37;3.20;;;0.80;;
71639;SDS011;60912;48.968;10.124;2023-10-31T10:03:05;2.10;;;0.70;;
71639;SDS011;60912;48.968;10.124;2023-10-31T10:05:33;3.27;;;0.63;;
71639;SDS011;60912;48.968;10.124;2023-10-31T10:08:00;2.28;;;0.57;;
71639;SDS011;60912;48.968;10.124;2023-10-31T10:10:25;2.97;;;0.67;;
71639;SDS011;60912;48.968;10.124;2023-10-31T10:12:51;2.75;;;0.80;;
71639;SDS011;60912;48.968;10.124;2023-10-31T10:15:17;3.30;;;0.65;;
71639;SDS011;60912;48.968;10.124;2023-10-31T10:17:48;2.77;;;0.60;;
71639;SDS011;60912;48.968;10.124;2023-10-31T10:20:15;4.28;;;0.80;;
71639;SDS011;60912;48.968;10.124;2023-10-31T10:22:40;2.80;;;0.70;;
71639;SDS011;60912;48.968;10.124;2023-10-31T10:25:10;2.53;;;0.70;;
71639;SDS011;60912;48.968;10.124;2023-10-31T10:27:46;3.83;;;0.90;;
71639;SDS011;60912;48.968;10.124;2023-10-31T10:30:12;4.93;;;0.60;;
71639;SDS011;60912;48.968;10.124;2023-10-31T10:32:39;3.50;;;0.80;;
71639;SDS011;60912;48.968;10.124;2023-10-31T10:35:06;2.58;;;0.60;;
71639;SDS011;60912;48.968;10.124;2023-10-31T10:37:33;5.23;;;1.27;;
71639;SDS011;60912;48.968;10.124;2023-10-31T10:40:05;2.53;;;0.70;;
71639;SDS011;60912;48.968;10.124;2023-10-31T10:42:32;5.32;;;0.88;;
71639;SDS011;60912;48.968;10.124;2023-10-31T10:45:04;6.05;;;0.93;;
71639;SDS011;60912;48.968;10.124;2023-10-31T10:47:33;4.55;;;0.85;;
71639;SDS011;60912;48.968;10.124;2023-10-31T10:50:00;4.07;;;0.80;;
71639;SDS011;60912;48.968;10.124;2023-10-31T10:52:29;3.58;;;0.77;;
71639;SDS011;60912;48.968;10.124;2023-10-31T10:55:04;2.88;;;0.70;;
71639;SDS011;60912;48.968;10.124;2023-10-31T10:57:37;1.95;;;0.68;;
71639;SDS011;60912;48.968;10.124;2023-10-31T11:00:07;6.05;;;0.93;;
71639;SDS011;60912;48.968;10.124;2023-10-31T11:02:34;4.53;;;0.87;;
71639;SDS011;60912;48.968;10.124;2023-10-31T11:05:01;6.20;;;0.95;;
71639;SDS011;60912;48.968;10.124;2023-10-31T11:07:30;6.78;;;1.13;;
71639;SDS011;60912;48.968;10.124;2023-10-31T11:09:57;4.32;;;0.82;;
71639;SDS011;60912;48.968;10.124;2023-10-31T11:12:27;3.90;;;0.88;;
71639;SDS011;60912;48.968;10.124;2023-10-31T11:14:54;3.63;;;0.70;;
71639;SDS011;60912;48.968;10.124;2023-10-31T11:17:23;4.70;;;0.60;;
71639;SDS011;60912;48.968;10.124;2023-10-31T11:19:51;3.05;;;0.80;;
71639;SDS011;60912;48.968;10.124;2023-10-31T11:22:18;2.67;;;0.70;;
71639;SDS011;60912;48.968;10.124;2023-10-31T11:24:44;5.82;;;0.93;;
71639;SDS011;60912;48.968;10.124;2023-10-31T11:27:09;5.57;;;1.17;;
71639;SDS011;60912;48.968;10.124;2023-10-31T11:29:35;4.13;;;1.40;;
71639;SDS011;60912;48.968;10.124;2023-10-31T11:32:01;7.40;;;1.10;;
71639;SDS011;60912;48.968;10.124;2023-10-31T11:34:27;7.60;;;1.00;;
71639;SDS011;60912;48.968;10.124;2023-10-31T11:36:54;8.77;;;1.38;;
71639;SDS011;60912;48.968;10.124;2023-10-31T11:42:41;3.83;;;0.80;;
71639;SDS011;60912;48.968;10.124;2023-10-31T11:45:10;3.20;;;0.90;;
71639;SDS011;60912;48.968;10.124;2023-10-31T11:47:48;3.70;;;0.98;;
71639;SDS011;60912;48.968;10.124;2023-10-31T11:50:14;5.85;;;0.98;;
71639;SDS011;60912;48.968;10.124;2023-10-31T11:52:40;10.32;;;1.13;;
71639;SDS011;60912;48.968;10.124;2023-10-31T11:55:12;4.87;;;1.50;;
71639;SDS011;60912;48.968;10.124;2023-10-31T11:57:38;5.38;;;1.67;;
71639;SDS011;60912;48.968;10.124;2023-10-31T12:00:04;4.20;;;1.50;;
71639;SDS011;60912;48.968;10.124;2023-10-31T12:02:30;5.78;;;1.80;;
71639;SDS011;60912;48.968;10.124;2023-10-31T12:05:09;5.67;;;1.50;;
71639;SDS011;60912;48.968;10.124;2023-10-31T12:07:42;6.53;;;1.40;;
71639;SDS011;60912;48.968;10.124;2023-10-31T12:10:08;4.80;;;1.23;;
71639;SDS011;60912;48.968;10.124;2023-10-31T12:12:34;4.20;;;1.00;;
71639;SDS011;60912;48.968;10.124;2023-10-31T12:15:08;3.70;;;0.70;;
71639;SDS011;60912;48.968;10.124;2023-10-31T12:17:35;4.07;;;0.90;;
71639;SDS011;60912;48.968;10.124;2023-10-31T12:20:07;7.63;;;1.08;;
71639;SDS011;60912;48.968;10.124;2023-10-31T12:22:36;3.70;;;1.10;;
71639;SDS011;60912;48.968;10.124;2023-10-31T12:25:02;3.92;;;1.00;;
71639;SDS011;60912;48.968;10.124;2023-10-31T12:27:44;3.53;;;0.70;;
71639;SDS011;60912;48.968;10.124;2023-10-31T12:30:16;2.85;;;0.65;;
71639;SDS011;60912;48.968;10.124;2023-10-31T12:32:43;3.22;;;0.98;;
71639;SDS011;60912;48.968;10.124;2023-10-31T12:35:13;5.70;;;1.20;;
71639;SDS011;60912;48.968;10.124;2023-10-31T12:37:44;5.82;;;1.50;;
71639;SDS011;60912;48.968;10.124;2023-10-31T12:40:12;4.15;;;1.10;;
71639;SDS011;60912;48.968;10.124;2023-10-31T12:42:39;3.72;;;0.88;;
71639;SDS011;60912;48.968;10.124;2023-10-31T12:45:05;6.67;;;1.00;;
71639;SDS011;60912;48.968;10.124;2023-10-31T12:47:31;4.60;;;0.80;;
71639;SDS011;60912;48.968;10.124;2023-10-31T12:50:07;6.75;;;1.20;;
71639;SDS011;60912;48.968;10.124;2023-10-31T12:52:50;5.63;;;0.97;;
71639;SDS011;60912;48.968;10.124;2023-10-31T12:55:20;4.60;;;1.15;;
71639;SDS011;60912;48.968;10.124;2023-10-31T12:57:48;4.50;;;1.42;;
71639;SDS011;60912;48.968;10.124;2023-10-31T13:00:14;4.28;;;1.20;;
71639;SDS011;60912;48.968;10.124;2023-10-31T13:02:43;4.88;;;1.05;;
71639;SDS011;60912;48.968;10.124;2023-10-31T13:07:37;5.13;;;1.13;;
71639;SDS011;60912;48.968;10.124;2023-10-31T13:10:04;5.80;;;1.05;;
71639;SDS011;60912;48.968;10.124;2023-10-31T13:12:34;5.93;;;1.10;;
71639;SDS011;60912;48.968;10.124;2023-10-31T13:15:00;6.10;;;1.10;;
71639;SDS011;60912;48.968;10.124;2023-10-31T13:17:26;3.37;;;0.87;;
71639;SDS011;60912;48.968;10.124;2023-10-31T13:19:52;3.60;;;1.00;;
71639;SDS011;60912;48.968;10.124;2023-10-31T13:22:18;4.27;;;0.80;;
71639;SDS011;60912;48.968;10.124;2023-10-31T13:24:43;4.43;;;0.88;;
71639;SDS011;60912;48.968;10.124;2023-10-31T13:27:08;3.23;;;1.10;;
71639;SDS011;60912;48.968;10.124;2023-10-31T13:29:39;3.60;;;0.60;;
71639;SDS011;60912;48.968;10.124;2023-10-31T13:32:05;5.03;;;0.90;;
71639;SDS011;60912;48.968;10.124;2023-10-31T13:34:30;2.07;;;0.63;;
71639;SDS011;60912;48.968;10.124;2023-10-31T13:36:57;2.13;;;0.60;;
71639;SDS011;60912;48.968;10.124;2023-10-31T13:39:23;3.20;;;0.73;;
71639;SDS011;60912;48.968;10.124;2023-10-31T13:41:48;3.93;;;0.90;;
71639;SDS011;60912;48.968;10.124;2023-10-31T13:44:14;5.00;;;0.80;;
71639;SDS011;60912;48.968;10.124;2023-10-31T13:46:39;3.10;;;0.90;;
71639;SDS011;60912;48.968;10.124;2023-10-31T13:49:04;5.67;;;0.80;;
71639;SDS011;60912;48.968;10.124;2023-10-31T13:51:32;4.72;;;0.98;;
71639;SDS011;60912;48.968;10.124;2023-10-31T13:54:00;4.40;;;1.13;;
71639;SDS011;60912;48.968;10.124;2023-10-31T13:56:27;2.22;;;0.73;;
71639;SDS011;60912;48.968;10.124;2023-10-31T13:58:52;6.77;;;0.80;;
71639;SDS011;60912;48.968;10.124;2023-10-31T14:01:20;2.80;;;0.70;;
71639;SDS011;60912;48.968;10.124;2023-10-31T14:03:50;3.13;;;0.80;;
71639;SDS011;60912;48.968;10.124;2023-10-31T14:06:16;3.20;;;0.80;;
71639;SDS011;60912;48.968;10.124;2023-10-31T14:08:50;3.38;;;0.93;;
71639;SDS011;60912;48.968;10.124;2023-10-31T14:11:16;3.95;;;0.80;;
71639;SDS011;60912;48.968;10.124;2023-10-31T14:13:42;4.30;;;0.80;;
71639;SDS011;60912;48.968;10.124;2023-10-31T14:16:09;2.83;;;0.55;;
71639;SDS011;60912;48.968;10.124;2023-10-31T14:18:37;7.88;;;1.00;;
71639;SDS011;60912;48.968;10.124;2023-10-31T14:21:02;5.77;;;1.00;;
71639;SDS011;60912;48.968;10.124;2023-10-31T14:23:28;5.10;;;1.08;;
71639;SDS011;60912;48.968;10.124;2023-10-31T14:25:53;4.37;;;1.00;;
71639;SDS011;60912;48.968;10.124;2023-10-31T14:28:19;4.93;;;1.10;;
71639;SDS011;60912;48.968;10.124;2023-10-31T14:30:44;3.60;;;0.90;;
71639;SDS011;60912;48.968;10.124;2023-10-31T14:33:10;6.23;;;1.00;;
71639;SDS011;60912;48.968;10.124;2023-10-31T14:35:35;3.47;;;0.90;;